Keiser, Arkansas
Current Conditions -  °F | °C
As of 7:53 PM on Monday 20 Oct 2014 (Local Time) from KHKA Reporting Station
Clear Clear  
Wind Chill: 63°   Ceiling: Unl
Heat Index: 63°   Visibility: 10mi
Dew Point: 55°   Wind: 7mph
Humidity: 75%   Direction: 220°SW
Pressure: 30"   Gusts: NA
Location:  35.67°N, 90.1°W
Report Text: KHKA 210053Z AUTO 22006KT 10SM CLR 17/13 A3000 RMK AO2 SLP159 T01720128
Loading
Personal Weather Stations






























Interactive Weather Map
Tropical Storm Tracking
New forecast layout! Learn more

10-Day Weather Forecast

Advertisements
Track Severe Weather on mobile